sensor_id;sensor_type;location;lat;lon;timestamp;pressure;altitude;pressure_sealevel;temperature;humidity
11987;BME280;6053;51.382;6.768;2022-12-11T00:01:44;100812.28;;;5.36;100.00
11987;BME280;6053;51.382;6.768;2022-12-11T00:04:13;100805.50;;;5.82;100.00
11987;BME280;6053;51.382;6.768;2022-12-11T00:06:41;100801.59;;;5.70;100.00
11987;BME280;6053;51.382;6.768;2022-12-11T00:09:10;100810.25;;;5.95;100.00
11987;BME280;6053;51.382;6.768;2022-12-11T00:11:39;100811.94;;;5.96;100.00
11987;BME280;6053;51.382;6.768;2022-12-11T00:14:08;100811.09;;;5.95;100.00
11987;BME280;6053;51.382;6.768;2022-12-11T00:16:38;100809.25;;;6.02;100.00
11987;BME280;6053;51.382;6.768;2022-12-11T00:19:07;100809.69;;;6.06;100.00
11987;BME280;6053;51.382;6.768;2022-12-11T00:21:36;100805.31;;;6.11;100.00
11987;BME280;6053;51.382;6.768;2022-12-11T00:24:05;100800.63;;;6.05;100.00
11987;BME280;6053;51.382;6.768;2022-12-11T00:26:34;100808.56;;;5.72;100.00
11987;BME280;6053;51.382;6.768;2022-12-11T00:29:03;100808.72;;;5.92;100.00
11987;BME280;6053;51.382;6.768;2022-12-11T00:31:31;100810.22;;;5.66;100.00
11987;BME280;6053;51.382;6.768;2022-12-11T00:34:02;100812.94;;;5.66;100.00
11987;BME280;6053;51.382;6.768;2022-12-11T00:36:30;100811.81;;;5.82;100.00
11987;BME280;6053;51.382;6.768;2022-12-11T00:39:00;100805.56;;;5.60;100.00
11987;BME280;6053;51.382;6.768;2022-12-11T00:41:28;100806.22;;;5.41;100.00
11987;BME280;6053;51.382;6.768;2022-12-11T00:43:57;100817.28;;;5.82;100.00
11987;BME280;6053;51.382;6.768;2022-12-11T00:46:26;100812.47;;;5.84;100.00
11987;BME280;6053;51.382;6.768;2022-12-11T00:48:54;100816.56;;;5.46;100.00
11987;BME280;6053;51.382;6.768;2022-12-11T00:51:24;100812.63;;;4.69;100.00
11987;BME280;6053;51.382;6.768;2022-12-11T00:53:53;100811.75;;;5.48;100.00
11987;BME280;6053;51.382;6.768;2022-12-11T00:56:22;100808.66;;;5.08;100.00
11987;BME280;6053;51.382;6.768;2022-12-11T00:58:51;100802.00;;;5.38;100.00
11987;BME280;6053;51.382;6.768;2022-12-11T01:01:22;100805.34;;;5.62;100.00
11987;BME280;6053;51.382;6.768;2022-12-11T01:03:52;100803.59;;;5.82;100.00
11987;BME280;6053;51.382;6.768;2022-12-11T01:06:24;100805.13;;;5.91;100.00
11987;BME280;6053;51.382;6.768;2022-12-11T01:08:54;100802.47;;;5.98;100.00
11987;BME280;6053;51.382;6.768;2022-12-11T01:11:37;100799.13;;;6.03;100.00
11987;BME280;6053;51.382;6.768;2022-12-11T01:14:07;100799.13;;;6.03;100.00
11987;BME280;6053;51.382;6.768;2022-12-11T01:16:36;100797.84;;;5.99;100.00
11987;BME280;6053;51.382;6.768;2022-12-11T01:19:05;100797.44;;;6.02;100.00
11987;BME280;6053;51.382;6.768;2022-12-11T01:21:35;100800.19;;;6.02;100.00
11987;BME280;6053;51.382;6.768;2022-12-11T01:24:04;100801.88;;;6.03;100.00
11987;BME280;6053;51.382;6.768;2022-12-11T01:26:33;100796.34;;;5.96;100.00
11987;BME280;6053;51.382;6.768;2022-12-11T01:29:02;100798.25;;;5.96;100.00
11987;BME280;6053;51.382;6.768;2022-12-11T01:31:31;100800.22;;;6.08;100.00
11987;BME280;6053;51.382;6.768;2022-12-11T01:34:00;100800.66;;;5.56;100.00
11987;BME280;6053;51.382;6.768;2022-12-11T01:36:28;100801.50;;;5.56;100.00
11987;BME280;6053;51.382;6.768;2022-12-11T01:38:58;100795.81;;;5.86;100.00
11987;BME280;6053;51.382;6.768;2022-12-11T01:41:27;100798.28;;;5.74;100.00
11987;BME280;6053;51.382;6.768;2022-12-11T01:43:58;100794.53;;;5.82;100.00
11987;BME280;6053;51.382;6.768;2022-12-11T01:46:27;100798.97;;;5.83;100.00
11987;BME280;6053;51.382;6.768;2022-12-11T01:48:57;100794.38;;;5.90;100.00
11987;BME280;6053;51.382;6.768;2022-12-11T01:51:29;100800.78;;;5.97;100.00
11987;BME280;6053;51.382;6.768;2022-12-11T01:54:03;100797.13;;;5.62;100.00
11987;BME280;6053;51.382;6.768;2022-12-11T01:56:34;100798.56;;;5.58;100.00
11987;BME280;6053;51.382;6.768;2022-12-11T01:59:05;100792.28;;;5.92;100.00
11987;BME280;6053;51.382;6.768;2022-12-11T02:01:39;100794.94;;;6.07;100.00
11987;BME280;6053;51.382;6.768;2022-12-11T02:04:09;100787.09;;;5.97;100.00
11987;BME280;6053;51.382;6.768;2022-12-11T02:06:40;100780.44;;;6.13;100.00
11987;BME280;6053;51.382;6.768;2022-12-11T02:09:12;100786.31;;;6.10;100.00
11987;BME280;6053;51.382;6.768;2022-12-11T02:11:50;100786.66;;;5.94;100.00
11987;BME280;6053;51.382;6.768;2022-12-11T02:14:27;100779.16;;;6.09;100.00
11987;BME280;6053;51.382;6.768;2022-12-11T02:17:02;100781.22;;;6.07;100.00
11987;BME280;6053;51.382;6.768;2022-12-11T02:19:52;100780.44;;;6.13;100.00
11987;BME280;6053;51.382;6.768;2022-12-11T02:22:33;100780.16;;;5.73;100.00
11987;BME280;6053;51.382;6.768;2022-12-11T02:25:14;100775.94;;;5.71;100.00
11987;BME280;6053;51.382;6.768;2022-12-11T02:27:51;100770.94;;;5.53;100.00
11987;BME280;6053;51.382;6.768;2022-12-11T02:30:24;100768.56;;;5.43;100.00
11987;BME280;6053;51.382;6.768;2022-12-11T02:32:55;100773.75;;;5.87;100.00
11987;BME280;6053;51.382;6.768;2022-12-11T02:35:27;100774.91;;;5.22;100.00
11987;BME280;6053;51.382;6.768;2022-12-11T02:38:00;100769.91;;;5.04;100.00
11987;BME280;6053;51.382;6.768;2022-12-11T02:40:33;100762.63;;;5.39;100.00
11987;BME280;6053;51.382;6.768;2022-12-11T02:43:07;100758.81;;;5.62;100.00
11987;BME280;6053;51.382;6.768;2022-12-11T02:45:41;100759.78;;;5.26;100.00
11987;BME280;6053;51.382;6.768;2022-12-11T02:48:11;100767.69;;;5.64;100.00
11987;BME280;6053;51.382;6.768;2022-12-11T02:50:44;100762.50;;;5.48;100.00
11987;BME280;6053;51.382;6.768;2022-12-11T02:53:16;100761.47;;;5.49;100.00
11987;BME280;6053;51.382;6.768;2022-12-11T02:55:51;100759.34;;;5.79;100.00
11987;BME280;6053;51.382;6.768;2022-12-11T02:58:24;100763.41;;;5.89;100.00
11987;BME280;6053;51.382;6.768;2022-12-11T03:00:54;100760.16;;;6.01;100.00
11987;BME280;6053;51.382;6.768;2022-12-11T03:03:24;100765.88;;;6.06;100.00
11987;BME280;6053;51.382;6.768;2022-12-11T03:05:52;100755.53;;;5.45;100.00
11987;BME280;6053;51.382;6.768;2022-12-11T03:08:21;100761.72;;;5.54;100.00
11987;BME280;6053;51.382;6.768;2022-12-11T03:10:50;100755.53;;;6.01;100.00
11987;BME280;6053;51.382;6.768;2022-12-11T03:13:20;100755.97;;;5.77;100.00
11987;BME280;6053;51.382;6.768;2022-12-11T03:16:03;100758.56;;;5.29;100.00
11987;BME280;6053;51.382;6.768;2022-12-11T03:18:40;100750.53;;;5.83;100.00
11987;BME280;6053;51.382;6.768;2022-12-11T03:21:16;100753.66;;;6.08;100.00
11987;BME280;6053;51.382;6.768;2022-12-11T03:23:51;100749.66;;;6.04;100.00
11987;BME280;6053;51.382;6.768;2022-12-11T03:26:23;100742.97;;;5.85;100.00
11987;BME280;6053;51.382;6.768;2022-12-11T03:28:57;100748.41;;;6.13;100.00
11987;BME280;6053;51.382;6.768;2022-12-11T03:31:30;100751.75;;;6.09;100.00
11987;BME280;6053;51.382;6.768;2022-12-11T03:34:07;100753.47;;;6.17;100.00
11987;BME280;6053;51.382;6.768;2022-12-11T03:36:39;100757.06;;;6.10;100.00
11987;BME280;6053;51.382;6.768;2022-12-11T03:39:13;100751.31;;;6.05;100.00
11987;BME280;6053;51.382;6.768;2022-12-11T03:41:44;100755.19;;;6.18;100.00
11987;BME280;6053;51.382;6.768;2022-12-11T03:44:15;100754.50;;;5.74;100.00
11987;BME280;6053;51.382;6.768;2022-12-11T03:46:46;100747.47;;;5.93;100.00
11987;BME280;6053;51.382;6.768;2022-12-11T03:49:20;100744.97;;;5.98;100.00
11987;BME280;6053;51.382;6.768;2022-12-11T03:51:52;100751.22;;;5.92;100.00
11987;BME280;6053;51.382;6.768;2022-12-11T03:54:22;100746.94;;;5.48;100.00
11987;BME280;6053;51.382;6.768;2022-12-11T03:56:54;100748.47;;;5.57;100.00
11987;BME280;6053;51.382;6.768;2022-12-11T03:59:24;100748.97;;;5.67;100.00
11987;BME280;6053;51.382;6.768;2022-12-11T04:01:54;100751.97;;;4.59;100.00
11987;BME280;6053;51.382;6.768;2022-12-11T04:04:23;100750.66;;;4.91;100.00
11987;BME280;6053;51.382;6.768;2022-12-11T04:06:52;100746.75;;;5.00;100.00
11987;BME280;6053;51.382;6.768;2022-12-11T04:09:20;100742.69;;;5.17;100.00
11987;BME280;6053;51.382;6.768;2022-12-11T04:11:49;100741.81;;;5.38;100.00
11987;BME280;6053;51.382;6.768;2022-12-11T04:14:18;100740.28;;;5.57;100.00
11987;BME280;6053;51.382;6.768;2022-12-11T04:17:06;100734.31;;;5.82;100.00
11987;BME280;6053;51.382;6.768;2022-12-11T04:19:35;100730.56;;;5.89;100.00
11987;BME280;6053;51.382;6.768;2022-12-11T04:22:20;100731.53;;;6.10;100.00
11987;BME280;6053;51.382;6.768;2022-12-11T04:25:07;100736.94;;;5.62;100.00
11987;BME280;6053;51.382;6.768;2022-12-11T04:27:36;100728.94;;;5.60;100.00
11987;BME280;6053;51.382;6.768;2022-12-11T04:30:19;100729.25;;;5.79;100.00
11987;BME280;6053;51.382;6.768;2022-12-11T04:32:51;100730.44;;;5.98;100.00
11987;BME280;6053;51.382;6.768;2022-12-11T04:35:20;100733.03;;;5.50;100.00
11987;BME280;6053;51.382;6.768;2022-12-11T04:37:50;100724.44;;;5.53;100.00
11987;BME280;6053;51.382;6.768;2022-12-11T04:40:20;100725.78;;;5.63;100.00
11987;BME280;6053;51.382;6.768;2022-12-11T04:42:48;100726.53;;;5.85;100.00
11987;BME280;6053;51.382;6.768;2022-12-11T04:45:17;100714.91;;;6.11;100.00
11987;BME280;6053;51.382;6.768;2022-12-11T04:47:46;100710.47;;;5.76;100.00
11987;BME280;6053;51.382;6.768;2022-12-11T04:50:16;100709.72;;;5.54;100.00
11987;BME280;6053;51.382;6.768;2022-12-11T04:52:45;100718.66;;;5.69;100.00
11987;BME280;6053;51.382;6.768;2022-12-11T04:55:14;100704.91;;;4.57;100.00
11987;BME280;6053;51.382;6.768;2022-12-11T04:57:42;100711.28;;;5.07;100.00
11987;BME280;6053;51.382;6.768;2022-12-11T05:00:12;100712.06;;;5.29;100.00
11987;BME280;6053;51.382;6.768;2022-12-11T05:02:41;100705.41;;;4.45;100.00
11987;BME280;6053;51.382;6.768;2022-12-11T05:05:10;100718.28;;;4.52;100.00
11987;BME280;6053;51.382;6.768;2022-12-11T05:07:41;100719.25;;;5.08;100.00
11987;BME280;6053;51.382;6.768;2022-12-11T05:10:10;100720.59;;;5.40;100.00
11987;BME280;6053;51.382;6.768;2022-12-11T05:12:38;100716.41;;;5.44;100.00
11987;BME280;6053;51.382;6.768;2022-12-11T05:15:08;100718.47;;;5.71;100.00
11987;BME280;6053;51.382;6.768;2022-12-11T05:17:37;100723.28;;;6.03;100.00
11987;BME280;6053;51.382;6.768;2022-12-11T05:20:07;100723.53;;;6.08;100.00
11987;BME280;6053;51.382;6.768;2022-12-11T05:22:36;100723.72;;;5.72;100.00
11987;BME280;6053;51.382;6.768;2022-12-11T05:25:06;100726.34;;;5.24;100.00
11987;BME280;6053;51.382;6.768;2022-12-11T05:27:36;100729.56;;;5.34;100.00
11987;BME280;6053;51.382;6.768;2022-12-11T05:30:06;100725.66;;;5.78;100.00
11987;BME280;6053;51.382;6.768;2022-12-11T05:32:34;100723.63;;;5.87;100.00
11987;BME280;6053;51.382;6.768;2022-12-11T05:35:04;100718.59;;;5.06;100.00
11987;BME280;6053;51.382;6.768;2022-12-11T05:37:33;100723.72;;;5.16;100.00
11987;BME280;6053;51.382;6.768;2022-12-11T05:40:02;100722.41;;;5.61;100.00
11987;BME280;6053;51.382;6.768;2022-12-11T05:42:33;100714.81;;;5.57;100.00
11987;BME280;6053;51.382;6.768;2022-12-11T05:45:02;100709.03;;;5.80;100.00
11987;BME280;6053;51.382;6.768;2022-12-11T05:47:31;100705.91;;;5.48;100.00
11987;BME280;6053;51.382;6.768;2022-12-11T05:50:00;100702.38;;;5.54;100.00
11987;BME280;6053;51.382;6.768;2022-12-11T05:52:30;100704.34;;;5.67;100.00
11987;BME280;6053;51.382;6.768;2022-12-11T05:54:58;100709.50;;;5.90;100.00
11987;BME280;6053;51.382;6.768;2022-12-11T05:57:27;100705.19;;;6.02;100.00
11987;BME280;6053;51.382;6.768;2022-12-11T05:59:57;100702.75;;;5.51;100.00
11987;BME280;6053;51.382;6.768;2022-12-11T06:02:26;100710.53;;;5.82;100.00
11987;BME280;6053;51.382;6.768;2022-12-11T06:04:54;100706.00;;;5.96;100.00
11987;BME280;6053;51.382;6.768;2022-12-11T06:07:23;100711.31;;;5.76;100.00
11987;BME280;6053;51.382;6.768;2022-12-11T06:09:52;100706.28;;;5.45;100.00
11987;BME280;6053;51.382;6.768;2022-12-11T06:12:20;100709.59;;;5.34;100.00
11987;BME280;6053;51.382;6.768;2022-12-11T06:14:49;100704.16;;;5.75;100.00
11987;BME280;6053;51.382;6.768;2022-12-11T06:17:19;100707.13;;;5.74;100.00
11987;BME280;6053;51.382;6.768;2022-12-11T06:19:48;100702.16;;;5.90;100.00
11987;BME280;6053;51.382;6.768;2022-12-11T06:22:16;100697.72;;;5.89;100.00
11987;BME280;6053;51.382;6.768;2022-12-11T06:24:45;100700.56;;;5.68;100.00
11987;BME280;6053;51.382;6.768;2022-12-11T06:27:14;100698.72;;;5.82;100.00
11987;BME280;6053;51.382;6.768;2022-12-11T06:29:42;100704.88;;;5.84;100.00
11987;BME280;6053;51.382;6.768;2022-12-11T06:32:11;100704.59;;;5.79;100.00
11987;BME280;6053;51.382;6.768;2022-12-11T06:34:41;100706.00;;;5.96;100.00
11987;BME280;6053;51.382;6.768;2022-12-11T06:37:10;100708.34;;;6.06;100.00
11987;BME280;6053;51.382;6.768;2022-12-11T06:39:38;100705.41;;;6.01;100.00
11987;BME280;6053;51.382;6.768;2022-12-11T06:42:07;100707.19;;;5.87;100.00
11987;BME280;6053;51.382;6.768;2022-12-11T06:44:35;100702.03;;;6.05;100.00
11987;BME280;6053;51.382;6.768;2022-12-11T06:47:04;100709.25;;;6.20;100.00
11987;BME280;6053;51.382;6.768;2022-12-11T06:49:33;100701.81;;;6.07;100.00
11987;BME280;6053;51.382;6.768;2022-12-11T06:52:04;100698.03;;;6.01;100.00
11987;BME280;6053;51.382;6.768;2022-12-11T06:54:32;100706.88;;;6.10;100.00
11987;BME280;6053;51.382;6.768;2022-12-11T06:57:01;100704.53;;;5.94;100.00
11987;BME280;6053;51.382;6.768;2022-12-11T06:59:30;100705.28;;;5.87;100.00
11987;BME280;6053;51.382;6.768;2022-12-11T07:01:58;100706.00;;;5.96;100.00
11987;BME280;6053;51.382;6.768;2022-12-11T07:04:27;100702.22;;;5.97;100.00
11987;BME280;6053;51.382;6.768;2022-12-11T07:06:57;100699.72;;;6.09;100.00
11987;BME280;6053;51.382;6.768;2022-12-11T07:09:27;100694.88;;;6.04;100.00
11987;BME280;6053;51.382;6.768;2022-12-11T07:11:55;100702.88;;;5.71;100.00
11987;BME280;6053;51.382;6.768;2022-12-11T07:14:24;100711.41;;;5.55;100.00
11987;BME280;6053;51.382;6.768;2022-12-11T07:16:53;100708.78;;;5.40;100.00
11987;BME280;6053;51.382;6.768;2022-12-11T07:19:22;100712.16;;;5.70;100.00
11987;BME280;6053;51.382;6.768;2022-12-11T07:21:51;100722.47;;;6.09;100.00
11987;BME280;6053;51.382;6.768;2022-12-11T07:24:19;100714.59;;;5.93;100.00
11987;BME280;6053;51.382;6.768;2022-12-11T07:26:49;100717.44;;;6.13;100.00
11987;BME280;6053;51.382;6.768;2022-12-11T07:29:19;100716.63;;;6.19;100.00
11987;BME280;6053;51.382;6.768;2022-12-11T07:31:47;100716.47;;;6.27;100.00
11987;BME280;6053;51.382;6.768;2022-12-11T07:34:16;100712.22;;;6.25;100.00
11987;BME280;6053;51.382;6.768;2022-12-11T07:36:45;100714.75;;;6.26;100.00
11987;BME280;6053;51.382;6.768;2022-12-11T07:39:14;100724.84;;;6.19;100.00
11987;BME280;6053;51.382;6.768;2022-12-11T07:41:42;100721.66;;;6.16;100.00
11987;BME280;6053;51.382;6.768;2022-12-11T07:44:15;100720.09;;;5.93;100.00
11987;BME280;6053;51.382;6.768;2022-12-11T07:46:44;100722.22;;;5.98;100.00
11987;BME280;6053;51.382;6.768;2022-12-11T07:49:12;100722.00;;;5.99;100.00
11987;BME280;6053;51.382;6.768;2022-12-11T07:51:42;100729.63;;;6.04;100.00
11987;BME280;6053;51.382;6.768;2022-12-11T07:54:12;100726.34;;;5.87;100.00
11987;BME280;6053;51.382;6.768;2022-12-11T07:56:43;100736.59;;;5.43;100.00
11987;BME280;6053;51.382;6.768;2022-12-11T07:59:20;100726.56;;;5.29;100.00
11987;BME280;6053;51.382;6.768;2022-12-11T08:01:49;100730.00;;;4.88;100.00
11987;BME280;6053;51.382;6.768;2022-12-11T08:04:18;100727.91;;;5.68;100.00
11987;BME280;6053;51.382;6.768;2022-12-11T08:06:46;100728.47;;;5.91;100.00
11987;BME280;6053;51.382;6.768;2022-12-11T08:09:15;100727.53;;;5.71;100.00
11987;BME280;6053;51.382;6.768;2022-12-11T08:11:48;100730.91;;;5.45;100.00
11987;BME280;6053;51.382;6.768;2022-12-11T08:14:17;100728.88;;;5.88;100.00
11987;BME280;6053;51.382;6.768;2022-12-11T08:16:48;100725.13;;;5.61;100.00
11987;BME280;6053;51.382;6.768;2022-12-11T08:19:17;100729.91;;;4.96;100.00
11987;BME280;6053;51.382;6.768;2022-12-11T08:21:45;100718.59;;;5.28;100.00
11987;BME280;6053;51.382;6.768;2022-12-11T08:24:14;100723.91;;;5.64;100.00
11987;BME280;6053;51.382;6.768;2022-12-11T08:26:46;100725.78;;;5.63;100.00
11987;BME280;6053;51.382;6.768;2022-12-11T08:29:15;100724.78;;;5.71;100.00
11987;BME280;6053;51.382;6.768;2022-12-11T08:31:44;100728.16;;;6.01;100.00
11987;BME280;6053;51.382;6.768;2022-12-11T08:34:14;100721.31;;;5.90;100.00
11987;BME280;6053;51.382;6.768;2022-12-11T08:36:43;100716.75;;;5.98;100.00
11987;BME280;6053;51.382;6.768;2022-12-11T08:39:11;100721.63;;;6.09;100.00
11987;BME280;6053;51.382;6.768;2022-12-11T08:41:41;100724.28;;;5.61;100.00
11987;BME280;6053;51.382;6.768;2022-12-11T08:44:11;100722.38;;;5.27;100.00
11987;BME280;6053;51.382;6.768;2022-12-11T08:46:43;100720.22;;;5.85;100.00
11987;BME280;6053;51.382;6.768;2022-12-11T08:49:11;100727.28;;;5.94;100.00
11987;BME280;6053;51.382;6.768;2022-12-11T08:51:42;100722.16;;;5.91;100.00
11987;BME280;6053;51.382;6.768;2022-12-11T08:54:11;100717.59;;;5.98;100.00
11987;BME280;6053;51.382;6.768;2022-12-11T08:56:39;100711.06;;;5.99;100.00
11987;BME280;6053;51.382;6.768;2022-12-11T08:59:08;100712.16;;;5.77;100.00
11987;BME280;6053;51.382;6.768;2022-12-11T09:01:37;100716.97;;;6.03;100.00
11987;BME280;6053;51.382;6.768;2022-12-11T09:04:05;100725.69;;;6.20;100.00
11987;BME280;6053;51.382;6.768;2022-12-11T09:06:34;100721.13;;;6.40;100.00
11987;BME280;6053;51.382;6.768;2022-12-11T09:09:04;100721.31;;;6.32;100.00
11987;BME280;6053;51.382;6.768;2022-12-11T09:11:35;100719.22;;;6.34;100.00
11987;BME280;6053;51.382;6.768;2022-12-11T09:14:04;100712.28;;;6.38;100.00
11987;BME280;6053;51.382;6.768;2022-12-11T09:16:38;100720.03;;;6.28;100.00
11987;BME280;6053;51.382;6.768;2022-12-11T09:19:10;100721.31;;;6.32;100.00
11987;BME280;6053;51.382;6.768;2022-12-11T09:21:40;100718.75;;;6.17;100.00
11987;BME280;6053;51.382;6.768;2022-12-11T09:24:12;100711.41;;;6.31;100.00
11987;BME280;6053;51.382;6.768;2022-12-11T09:26:41;100712.22;;;6.25;100.00
11987;BME280;6053;51.382;6.768;2022-12-11T09:29:10;100713.69;;;6.14;100.00
11987;BME280;6053;51.382;6.768;2022-12-11T09:31:39;100709.16;;;6.00;100.00
11987;BME280;6053;51.382;6.768;2022-12-11T09:34:10;100706.63;;;5.98;100.00
11987;BME280;6053;51.382;6.768;2022-12-11T09:36:42;100716.84;;;6.18;100.00
11987;BME280;6053;51.382;6.768;2022-12-11T09:39:14;100715.44;;;5.59;100.00
11987;BME280;6053;51.382;6.768;2022-12-11T09:41:50;100721.06;;;5.51;100.00
11987;BME280;6053;51.382;6.768;2022-12-11T09:44:33;100721.16;;;5.99;100.00
11987;BME280;6053;51.382;6.768;2022-12-11T09:47:06;100723.22;;;6.31;100.00
11987;BME280;6053;51.382;6.768;2022-12-11T09:49:42;100724.72;;;5.93;100.00
11987;BME280;6053;51.382;6.768;2022-12-11T09:52:16;100730.09;;;5.79;100.00
11987;BME280;6053;51.382;6.768;2022-12-11T09:54:51;100724.47;;;5.87;100.00
11987;BME280;6053;51.382;6.768;2022-12-11T09:57:31;100721.56;;;5.61;100.00
11987;BME280;6053;51.382;6.768;2022-12-11T10:00:11;100717.50;;;5.85;100.00
11987;BME280;6053;51.382;6.768;2022-12-11T10:02:55;100718.31;;;4.73;100.00
11987;BME280;6053;51.382;6.768;2022-12-11T10:05:32;100716.16;;;4.47;100.00
11987;BME280;6053;51.382;6.768;2022-12-11T10:08:10;100714.44;;;5.10;100.00
11987;BME280;6053;51.382;6.768;2022-12-11T10:10:45;100709.19;;;4.87;100.00
11987;BME280;6053;51.382;6.768;2022-12-11T10:13:23;100714.84;;;5.07;100.00
11987;BME280;6053;51.382;6.768;2022-12-11T10:15:59;100716.34;;;5.38;100.00
11987;BME280;6053;51.382;6.768;2022-12-11T10:18:32;100719.06;;;4.88;100.00
11987;BME280;6053;51.382;6.768;2022-12-11T10:21:02;100717.38;;;5.09;100.00
11987;BME280;6053;51.382;6.768;2022-12-11T10:23:35;100724.84;;;5.50;100.00
11987;BME280;6053;51.382;6.768;2022-12-11T10:26:11;100712.22;;;5.49;100.00
11987;BME280;6053;51.382;6.768;2022-12-11T10:28:43;100706.63;;;5.98;100.00
11987;BME280;6053;51.382;6.768;2022-12-11T10:31:16;100706.97;;;5.88;100.00
11987;BME280;6053;51.382;6.768;2022-12-11T10:33:54;100697.59;;;5.98;100.00
11987;BME280;6053;51.382;6.768;2022-12-11T10:36:29;100704.13;;;6.03;100.00
11987;BME280;6053;51.382;6.768;2022-12-11T10:38:58;100700.91;;;6.34;100.00
11987;BME280;6053;51.382;6.768;2022-12-11T10:41:35;100691.03;;;5.57;100.00
11987;BME280;6053;51.382;6.768;2022-12-11T10:44:14;100694.78;;;5.91;100.00
11987;BME280;6053;51.382;6.768;2022-12-11T10:46:44;100695.63;;;5.91;100.00
11987;BME280;6053;51.382;6.768;2022-12-11T10:49:22;100686.38;;;5.93;100.00
11987;BME280;6053;51.382;6.768;2022-12-11T10:51:52;100686.53;;;5.84;100.00
11987;BME280;6053;51.382;6.768;2022-12-11T10:54:30;100682.66;;;4.81;100.00
11987;BME280;6053;51.382;6.768;2022-12-11T10:57:02;100679.81;;;5.87;100.00
11987;BME280;6053;51.382;6.768;2022-12-11T10:59:36;100679.34;;;6.18;100.00
11987;BME280;6053;51.382;6.768;2022-12-11T11:02:16;100681.97;;;5.29;100.00
11987;BME280;6053;51.382;6.768;2022-12-11T11:04:46;100669.47;;;5.82;100.00
11987;BME280;6053;51.382;6.768;2022-12-11T11:07:19;100669.28;;;6.38;100.00
11987;BME280;6053;51.382;6.768;2022-12-11T11:09:48;100668.50;;;6.65;100.00
11987;BME280;6053;51.382;6.768;2022-12-11T11:12:22;100674.81;;;6.65;100.00
11987;BME280;6053;51.382;6.768;2022-12-11T11:14:59;100660.94;;;5.99;100.00
11987;BME280;6053;51.382;6.768;2022-12-11T11:17:29;100666.97;;;6.35;100.00
11987;BME280;6053;51.382;6.768;2022-12-11T11:20:11;100674.38;;;6.48;100.00
11987;BME280;6053;51.382;6.768;2022-12-11T11:22:44;100669.69;;;6.29;100.00
11987;BME280;6053;51.382;6.768;2022-12-11T11:25:18;100662.16;;;6.44;100.00
11987;BME280;6053;51.382;6.768;2022-12-11T11:27:55;100670.25;;;5.76;100.00
11987;BME280;6053;51.382;6.768;2022-12-11T11:30:26;100667.78;;;6.36;100.00
11987;BME280;6053;51.382;6.768;2022-12-11T11:32:57;100664.69;;;6.59;100.00
11987;BME280;6053;51.382;6.768;2022-12-11T11:35:30;100659.88;;;6.74;100.00
11987;BME280;6053;51.382;6.768;2022-12-11T11:38:04;100658.78;;;6.49;100.00
11987;BME280;6053;51.382;6.768;2022-12-11T11:40:43;100651.28;;;5.68;100.00
11987;BME280;6053;51.382;6.768;2022-12-11T11:43:20;100661.09;;;5.21;100.00
11987;BME280;6053;51.382;6.768;2022-12-11T11:45:58;100644.31;;;6.00;100.00
11987;BME280;6053;51.382;6.768;2022-12-11T11:48:35;100646.53;;;6.38;100.00
11987;BME280;6053;51.382;6.768;2022-12-11T11:51:13;100657.16;;;5.65;100.00
11987;BME280;6053;51.382;6.768;2022-12-11T11:53:47;100647.66;;;5.96;100.00
11987;BME280;6053;51.382;6.768;2022-12-11T11:56:25;100653.59;;;6.06;100.00
11987;BME280;6053;51.382;6.768;2022-12-11T11:59:02;100646.84;;;6.08;100.00
11987;BME280;6053;51.382;6.768;2022-12-11T12:01:34;100646.50;;;5.83;100.00
11987;BME280;6053;51.382;6.768;2022-12-11T12:04:03;100647.38;;;5.84;100.00
11987;BME280;6053;51.382;6.768;2022-12-11T12:06:54;100642.69;;;6.26;100.00
11987;BME280;6053;51.382;6.768;2022-12-11T12:09:34;100641.09;;;6.71;100.00
11987;BME280;6053;51.382;6.768;2022-12-11T12:12:13;100633.72;;;6.78;100.00
11987;BME280;6053;51.382;6.768;2022-12-11T12:15:01;100646.78;;;6.70;100.00
11987;BME280;6053;51.382;6.768;2022-12-11T12:17:37;100648.91;;;5.58;100.00
11987;BME280;6053;51.382;6.768;2022-12-11T12:20:16;100643.28;;;5.73;100.00
11987;BME280;6053;51.382;6.768;2022-12-11T12:22:54;100633.84;;;6.30;100.00
11987;BME280;6053;51.382;6.768;2022-12-11T12:25:30;100640.16;;;5.76;100.00
11987;BME280;6053;51.382;6.768;2022-12-11T12:28:13;100629.03;;;6.46;100.00
11987;BME280;6053;51.382;6.768;2022-12-11T12:30:55;100636.03;;;6.68;100.00
11987;BME280;6053;51.382;6.768;2022-12-11T12:33:39;100629.91;;;6.79;100.00
11987;BME280;6053;51.382;6.768;2022-12-11T12:36:17;100622.09;;;6.76;100.00
11987;BME280;6053;51.382;6.768;2022-12-11T12:38:53;100616.84;;;6.81;100.00
11987;BME280;6053;51.382;6.768;2022-12-11T12:41:34;100622.09;;;6.70;100.00
11987;BME280;6053;51.382;6.768;2022-12-11T12:44:17;100621.50;;;6.88;100.00
11987;BME280;6053;51.382;6.768;2022-12-11T12:46:54;100616.84;;;6.95;100.00
11987;BME280;6053;51.382;6.768;2022-12-11T12:49:34;100618.94;;;6.79;100.00
11987;BME280;6053;51.382;6.768;2022-12-11T12:52:09;100617.75;;;5.59;100.00
11987;BME280;6053;51.382;6.768;2022-12-11T12:54:41;100614.09;;;5.80;100.00
11987;BME280;6053;51.382;6.768;2022-12-11T12:57:30;100605.63;;;6.43;100.00
11987;BME280;6053;51.382;6.768;2022-12-11T12:59:59;100606.91;;;6.74;100.00
11987;BME280;6053;51.382;6.768;2022-12-11T13:02:36;100606.41;;;6.04;100.00
11987;BME280;6053;51.382;6.768;2022-12-11T13:05:17;100611.66;;;5.99;100.00
11987;BME280;6053;51.382;6.768;2022-12-11T13:07:49;100607.84;;;6.00;100.00
11987;BME280;6053;51.382;6.768;2022-12-11T13:10:29;100609.66;;;6.34;100.00
11987;BME280;6053;51.382;6.768;2022-12-11T13:12:59;100612.19;;;6.62;100.00
11987;BME280;6053;51.382;6.768;2022-12-11T13:15:34;100619.59;;;6.68;100.00
11987;BME280;6053;51.382;6.768;2022-12-11T13:18:29;100613.03;;;6.63;100.00
11987;BME280;6053;51.382;6.768;2022-12-11T13:20:58;100611.13;;;6.50;100.00
11987;BME280;6053;51.382;6.768;2022-12-11T13:23:29;100615.78;;;6.63;100.00
11987;BME280;6053;51.382;6.768;2022-12-11T13:26:00;100617.88;;;6.74;100.00